• Join FlightAware (Why Join?)
  • Login
  • US Flag 
05:43AM EDT


 

Airport Tracker/Info


-or-


 

Live Flight TrackerFlight Track Log ✈ RPA3159 ✈ 06-Jul-2013 ✈ KMHT - KPHL

Flight Track Log - Related Links

Times and Time Zones

All times are in EDT time to prevent confusion due to time zone crossing. See the RPA3159 flight status page for this flight to view local times or setup timezone preferences in your user account.

Time Position Orientation Groundspeed Altitude Reporting Facility
EDT Latitude Longitude Course Direction KTS MPH feet Rate Location/Type
11:32AM 42.9667 -71.4500 332° Northwest 154 177 1,700  Level KA90
11:34AM 43.0383 -71.5028 332° Northwest 236 272 4,600 2,400 Climbing Boston Center
11:35AM 43.0414 -71.6050 272° West 223 257 8,000 2,820 Climbing Boston Center
11:36AM 43.0400 -71.6958 269° West 254 292 10,300 1,860 Climbing Boston Center
11:37AM 43.0364 -71.8153 268° West 281 323 11,800 2,100 Climbing Boston Center
11:38AM 43.0350 -71.9261 269° West 317 365 14,600 2,640 Climbing Boston Center
11:39AM 43.0314 -72.0622 268° West 329 379 17,100 2,100 Climbing Boston Center
11:40AM 43.0294 -72.1761 269° West 334 384 18,900 1,680 Climbing Boston Center
11:41AM 43.0297 -72.3094 270° West 346 398 20,500 1,980 Climbing Boston Center
11:42AM 43.0278 -72.4486 269° West 356 410 22,900 2,640 Climbing Boston Center
11:43AM 43.0214 -72.5736 266° West 350 403 25,800 1,500 Climbing Boston Center
11:44AM 43.0150 -72.7069 266° West 337 388 26,000 60 Climbing Boston Center
11:45AM 43.0103 -72.8261 267° West 326 375 26,000  Level Boston Center
11:46AM 43.0058 -72.9483 267° West 331 381 26,000  Level Boston Center
11:47AM 43.0050 -73.0789 270° West 348 400 26,000  Level Boston Center
11:48AM 43.0019 -73.2264 268° West 376 433 26,000  Level Boston Center
11:49AM 42.9781 -73.3708 257° West 391 450 26,000  Level Boston Center
11:50AM 42.9167 -73.4919 235° Southwest 386 444 26,000  Level Boston Center
11:51AM 42.8528 -73.6183 235° Southwest 393 452 26,000  Level Boston Center
11:52AM 42.7828 -73.7386 232° Southwest 404 465 26,000  Level Boston Center
11:53AM 42.7167 -73.8614 234° Southwest 409 471 26,000  Level Boston Center
11:54AM 42.6586 -73.9872 238° Southwest 409 471 26,000 -540 Level Boston Center
11:55AM 42.5964 -74.1156 237° Southwest 404 465 25,000 -1,200 Descending Boston Center
11:56AM 42.5361 -74.2433 237° Southwest 404 465 23,600 -1,440 Descending Boston Center
11:57AM 42.4778 -74.3628 237° Southwest 404 465 22,200 -1,320 Descending Boston Center
11:58AM 42.4175 -74.4792 235° Southwest 398 458 20,800 -1,020 Descending Boston Center
12:00PM 42.2814 -74.7508 236° Southwest 372 428 19,000 -600 Descending New York Center
12:01PM 42.2275 -74.8625 237° Southwest 372 428 19,000  Level New York Center
12:02PM 42.1656 -74.9706 232° Southwest 367 422 19,000  Level New York Center
12:03PM 42.0775 -75.0431 211° Southwest 361 415 19,000  Level New York Center
12:04PM 41.9897 -75.1156 212° Southwest 371 427 19,000  Level New York Center
12:05PM 41.9017 -75.1878 211° Southwest 378 435 19,000  Level New York Center
12:06PM 41.8222 -75.2519 211° Southwest 378 435 19,000 -660 Level New York Center
12:07PM 41.7342 -75.3211 210° Southwest 378 435 17,700 -1,680 Descending New York Center
12:08PM 41.6417 -75.3981 212° Southwest 378 435 15,800 -1,800 Descending New York Center
12:09PM 41.5578 -75.4644 211° Southwest 373 429 14,200 -1,620 Descending New York Center
12:10PM 41.4761 -75.5306 211° Southwest 358 412 12,500 -1,140 Descending New York Center
12:11PM 41.4067 -75.5947 215° Southwest 344 396 12,000 -300 Descending New York Center
12:12PM 41.3158 -75.6269 195° South 339 390 12,000  Level New York Center
12:13PM 41.2094 -75.6358 184° South 340 391 12,000  Level New York Center
12:14PM 41.1111 -75.6425 183° South 357 411 12,000  Level New York Center
12:15PM 41.0142 -75.6219 171° South 362 417 12,000  Level New York Center
12:16PM 40.9153 -75.5903 166° South 367 422 12,000  Level New York Center
12:17PM 40.8167 -75.5558 165° South 372 428 12,000  Level New York Center
12:18PM 40.7181 -75.5214 165° South 372 428 12,000 -1,020 Level New York Center
12:19PM 40.6194 -75.4872 165° South 372 428 10,000 -540 Descending New York Center
12:20PM 40.5289 -75.4592 167° South 355 409 11,000 -120 Climbing New York Center
12:21PM 40.4486 -75.4319 166° South 321 369 9,800 -1,440 Descending New York Center
12:22PM 40.3839 -75.3839 151° Southeast 298 343 8,100 -1,440 Descending New York Center
12:23PM 40.3197 -75.3225 144° Southeast 292 336 7,000 -600 Descending New York Center
12:24PM 40.2492 -75.2553 144° Southeast 292 336 7,000 -60 Level New York Center
12:25PM 40.1867 -75.1997 146° Southeast 292 336 6,900 -540 Descending New York Center
12:26PM 40.1344 -75.1503 144° Southeast 255 293 6,000 -600 Descending New York Center
12:27PM 40.1000 -75.1167 143° Southeast 232 267 6,000  Level Philadelphia TRACON
12:28PM 40.0833 -75.0500 108° East 226 260 6,000  Level Philadelphia TRACON
12:29PM 40.0500 -74.9833 123° Southeast 221 254 6,000 -540 Level Philadelphia TRACON
12:30PM 40.0167 -74.9167 123° Southeast 205 236 5,000 -1,200 Descending Philadelphia TRACON
12:31PM 39.9667 -74.9167 180° South 195 224 3,600 -960 Descending Philadelphia TRACON
12:32PM 39.9333 -74.9667 229° Southwest 185 213 3,000 -300 Descending Philadelphia TRACON
12:33PM 39.9167 -75.0167 247° West 179 206 3,000 -480 Level Philadelphia TRACON
12:34PM 39.9000 -75.0833 252° West 179 206 2,100 -840 Descending Philadelphia TRACON
12:36PM 39.8833 -75.1833 258° West 127 146 600 -780 Descending Philadelphia TRACON
12:38PM 39.8667 -75.2333 247° West  Level FlightAware Approximate
12:45PM 39.8722 -75.2409 247° West  Level Estimated